sensor_id;sensor_type;location;lat;lon;timestamp;temperature;humidity
45837;DHT22;31548;51.420;-0.040;2022-09-24T00:01:37;13.90;99.90
45837;DHT22;31548;51.420;-0.040;2022-09-24T00:04:08;13.90;99.90
45837;DHT22;31548;51.420;-0.040;2022-09-24T00:06:43;13.90;99.90
45837;DHT22;31548;51.420;-0.040;2022-09-24T00:09:15;13.80;99.90
45837;DHT22;31548;51.420;-0.040;2022-09-24T00:11:42;13.80;99.90
45837;DHT22;31548;51.420;-0.040;2022-09-24T00:14:12;13.70;99.90
45837;DHT22;31548;51.420;-0.040;2022-09-24T00:16:40;13.70;99.90
45837;DHT22;31548;51.420;-0.040;2022-09-24T00:19:09;13.70;99.90
45837;DHT22;31548;51.420;-0.040;2022-09-24T00:21:37;13.60;99.90
45837;DHT22;31548;51.420;-0.040;2022-09-24T00:24:13;13.60;99.90
45837;DHT22;31548;51.420;-0.040;2022-09-24T00:27:01;13.60;99.90
45837;DHT22;31548;51.420;-0.040;2022-09-24T00:29:29;13.60;99.90
45837;DHT22;31548;51.420;-0.040;2022-09-24T00:32:00;13.50;99.90
45837;DHT22;31548;51.420;-0.040;2022-09-24T00:34:28;13.50;99.90
45837;DHT22;31548;51.420;-0.040;2022-09-24T00:36:56;13.50;99.90
45837;DHT22;31548;51.420;-0.040;2022-09-24T00:39:23;13.50;99.90
45837;DHT22;31548;51.420;-0.040;2022-09-24T00:41:50;13.50;99.90
45837;DHT22;31548;51.420;-0.040;2022-09-24T00:47:36;13.40;99.90
45837;DHT22;31548;51.420;-0.040;2022-09-24T00:52:58;13.30;99.90
45837;DHT22;31548;51.420;-0.040;2022-09-24T00:55:27;13.30;99.90
45837;DHT22;31548;51.420;-0.040;2022-09-24T00:57:59;13.30;99.90
45837;DHT22;31548;51.420;-0.040;2022-09-24T01:00:29;13.30;99.90
45837;DHT22;31548;51.420;-0.040;2022-09-24T01:03:06;13.30;99.90
45837;DHT22;31548;51.420;-0.040;2022-09-24T01:05:36;13.20;99.90
45837;DHT22;31548;51.420;-0.040;2022-09-24T01:08:06;13.20;99.90
45837;DHT22;31548;51.420;-0.040;2022-09-24T01:16:15;13.10;99.90
45837;DHT22;31548;51.420;-0.040;2022-09-24T01:18:53;13.10;99.90
45837;DHT22;31548;51.420;-0.040;2022-09-24T01:21:43;13.10;99.90
45837;DHT22;31548;51.420;-0.040;2022-09-24T01:27:19;13.00;99.90
45837;DHT22;31548;51.420;-0.040;2022-09-24T01:30:08;13.00;99.90
45837;DHT22;31548;51.420;-0.040;2022-09-24T01:32:52;12.90;99.90
45837;DHT22;31548;51.420;-0.040;2022-09-24T01:35:41;12.90;99.90
45837;DHT22;31548;51.420;-0.040;2022-09-24T01:38:20;12.90;99.90
45837;DHT22;31548;51.420;-0.040;2022-09-24T01:40:50;12.80;99.90
45837;DHT22;31548;51.420;-0.040;2022-09-24T01:43:23;12.80;99.90
45837;DHT22;31548;51.420;-0.040;2022-09-24T01:45:51;12.80;99.90
45837;DHT22;31548;51.420;-0.040;2022-09-24T01:48:18;12.70;99.90
45837;DHT22;31548;51.420;-0.040;2022-09-24T01:53:26;12.70;99.90
45837;DHT22;31548;51.420;-0.040;2022-09-24T01:56:02;12.70;99.90
45837;DHT22;31548;51.420;-0.040;2022-09-24T01:58:36;12.70;99.90
45837;DHT22;31548;51.420;-0.040;2022-09-24T02:01:09;12.70;99.90
45837;DHT22;31548;51.420;-0.040;2022-09-24T02:03:43;12.70;99.90
45837;DHT22;31548;51.420;-0.040;2022-09-24T02:06:15;12.60;99.90
45837;DHT22;31548;51.420;-0.040;2022-09-24T02:08:46;12.60;99.90
45837;DHT22;31548;51.420;-0.040;2022-09-24T02:11:14;12.60;99.90
45837;DHT22;31548;51.420;-0.040;2022-09-24T02:16:23;12.50;99.90
45837;DHT22;31548;51.420;-0.040;2022-09-24T02:18:55;12.50;99.90
45837;DHT22;31548;51.420;-0.040;2022-09-24T02:21:25;12.50;99.90
45837;DHT22;31548;51.420;-0.040;2022-09-24T02:24:06;12.50;99.90
45837;DHT22;31548;51.420;-0.040;2022-09-24T02:26:34;12.50;99.90
45837;DHT22;31548;51.420;-0.040;2022-09-24T02:29:02;12.40;99.90
45837;DHT22;31548;51.420;-0.040;2022-09-24T02:31:31;12.40;99.90
45837;DHT22;31548;51.420;-0.040;2022-09-24T02:34:07;12.40;99.90
45837;DHT22;31548;51.420;-0.040;2022-09-24T02:36:58;12.40;99.90
45837;DHT22;31548;51.420;-0.040;2022-09-24T02:39:25;12.50;99.90
45837;DHT22;31548;51.420;-0.040;2022-09-24T02:41:53;12.40;99.90
45837;DHT22;31548;51.420;-0.040;2022-09-24T02:44:21;12.50;99.90
45837;DHT22;31548;51.420;-0.040;2022-09-24T02:46:48;12.50;99.90
45837;DHT22;31548;51.420;-0.040;2022-09-24T02:49:17;12.50;99.90
45837;DHT22;31548;51.420;-0.040;2022-09-24T02:51:45;12.50;99.90
45837;DHT22;31548;51.420;-0.040;2022-09-24T02:54:12;12.50;99.90
45837;DHT22;31548;51.420;-0.040;2022-09-24T02:56:39;12.50;99.90
45837;DHT22;31548;51.420;-0.040;2022-09-24T02:59:07;12.50;99.90
45837;DHT22;31548;51.420;-0.040;2022-09-24T03:01:35;12.60;99.90
45837;DHT22;31548;51.420;-0.040;2022-09-24T03:04:03;12.60;99.90
45837;DHT22;31548;51.420;-0.040;2022-09-24T03:06:30;12.60;99.90
45837;DHT22;31548;51.420;-0.040;2022-09-24T03:08:58;12.60;99.90
45837;DHT22;31548;51.420;-0.040;2022-09-24T03:11:26;12.60;99.90
45837;DHT22;31548;51.420;-0.040;2022-09-24T03:13:54;12.60;99.90
45837;DHT22;31548;51.420;-0.040;2022-09-24T03:16:22;12.60;99.90
45837;DHT22;31548;51.420;-0.040;2022-09-24T03:18:49;12.50;99.90
45837;DHT22;31548;51.420;-0.040;2022-09-24T03:21:18;12.50;99.90
45837;DHT22;31548;51.420;-0.040;2022-09-24T03:23:46;12.50;99.90
45837;DHT22;31548;51.420;-0.040;2022-09-24T03:26:14;12.50;99.90
45837;DHT22;31548;51.420;-0.040;2022-09-24T03:28:41;12.50;99.90
45837;DHT22;31548;51.420;-0.040;2022-09-24T03:31:09;12.40;99.90
45837;DHT22;31548;51.420;-0.040;2022-09-24T03:36:14;12.40;99.90
45837;DHT22;31548;51.420;-0.040;2022-09-24T03:38:43;12.30;99.90
45837;DHT22;31548;51.420;-0.040;2022-09-24T03:41:12;12.40;99.90
45837;DHT22;31548;51.420;-0.040;2022-09-24T03:43:40;12.40;99.90
45837;DHT22;31548;51.420;-0.040;2022-09-24T03:46:09;12.40;99.90
45837;DHT22;31548;51.420;-0.040;2022-09-24T03:48:38;12.40;99.90
45837;DHT22;31548;51.420;-0.040;2022-09-24T03:51:09;12.30;99.90
45837;DHT22;31548;51.420;-0.040;2022-09-24T03:53:37;12.30;99.90
45837;DHT22;31548;51.420;-0.040;2022-09-24T03:56:05;12.30;99.90
45837;DHT22;31548;51.420;-0.040;2022-09-24T03:58:34;12.30;99.90
45837;DHT22;31548;51.420;-0.040;2022-09-24T04:01:08;12.30;99.90
45837;DHT22;31548;51.420;-0.040;2022-09-24T04:03:38;12.30;99.90
45837;DHT22;31548;51.420;-0.040;2022-09-24T04:06:06;12.20;99.90
45837;DHT22;31548;51.420;-0.040;2022-09-24T04:08:34;12.20;99.90
45837;DHT22;31548;51.420;-0.040;2022-09-24T04:11:01;12.20;99.90
45837;DHT22;31548;51.420;-0.040;2022-09-24T04:13:28;12.10;99.90
45837;DHT22;31548;51.420;-0.040;2022-09-24T04:16:03;12.10;99.90
45837;DHT22;31548;51.420;-0.040;2022-09-24T04:18:30;12.10;99.90
45837;DHT22;31548;51.420;-0.040;2022-09-24T04:21:04;12.10;99.90
45837;DHT22;31548;51.420;-0.040;2022-09-24T04:23:31;12.10;99.90
45837;DHT22;31548;51.420;-0.040;2022-09-24T04:25:59;12.10;99.90
45837;DHT22;31548;51.420;-0.040;2022-09-24T04:28:29;12.10;99.90
45837;DHT22;31548;51.420;-0.040;2022-09-24T04:30:57;12.10;99.90
45837;DHT22;31548;51.420;-0.040;2022-09-24T04:33:24;12.10;99.90
45837;DHT22;31548;51.420;-0.040;2022-09-24T04:35:51;12.10;99.90
45837;DHT22;31548;51.420;-0.040;2022-09-24T04:38:19;12.10;99.90
45837;DHT22;31548;51.420;-0.040;2022-09-24T04:40:47;12.10;99.90
45837;DHT22;31548;51.420;-0.040;2022-09-24T04:43:15;12.10;99.90
45837;DHT22;31548;51.420;-0.040;2022-09-24T04:45:45;12.00;99.90
45837;DHT22;31548;51.420;-0.040;2022-09-24T04:48:13;12.00;99.90
45837;DHT22;31548;51.420;-0.040;2022-09-24T04:50:40;12.00;99.90
45837;DHT22;31548;51.420;-0.040;2022-09-24T04:53:12;12.00;99.90
45837;DHT22;31548;51.420;-0.040;2022-09-24T04:55:40;12.00;99.90
45837;DHT22;31548;51.420;-0.040;2022-09-24T04:58:08;12.00;99.90
45837;DHT22;31548;51.420;-0.040;2022-09-24T05:00:36;12.00;99.90
45837;DHT22;31548;51.420;-0.040;2022-09-24T05:03:03;11.90;99.90
45837;DHT22;31548;51.420;-0.040;2022-09-24T05:05:32;11.90;99.90
45837;DHT22;31548;51.420;-0.040;2022-09-24T05:08:00;11.90;99.90
45837;DHT22;31548;51.420;-0.040;2022-09-24T05:10:29;11.90;99.90
45837;DHT22;31548;51.420;-0.040;2022-09-24T05:12:57;11.80;99.90
45837;DHT22;31548;51.420;-0.040;2022-09-24T05:15:25;11.80;99.90
45837;DHT22;31548;51.420;-0.040;2022-09-24T05:17:52;11.80;99.90
45837;DHT22;31548;51.420;-0.040;2022-09-24T05:20:19;11.70;99.90
45837;DHT22;31548;51.420;-0.040;2022-09-24T05:22:48;11.70;99.90
45837;DHT22;31548;51.420;-0.040;2022-09-24T05:25:18;11.70;99.90
45837;DHT22;31548;51.420;-0.040;2022-09-24T05:27:47;11.60;99.90
45837;DHT22;31548;51.420;-0.040;2022-09-24T05:30:16;11.60;99.90
45837;DHT22;31548;51.420;-0.040;2022-09-24T05:32:44;11.50;99.90
45837;DHT22;31548;51.420;-0.040;2022-09-24T05:35:11;11.60;99.90
45837;DHT22;31548;51.420;-0.040;2022-09-24T05:37:39;11.50;99.90
45837;DHT22;31548;51.420;-0.040;2022-09-24T05:40:07;11.50;99.90
45837;DHT22;31548;51.420;-0.040;2022-09-24T05:43:02;11.50;99.90
45837;DHT22;31548;51.420;-0.040;2022-09-24T05:45:30;11.50;99.90
45837;DHT22;31548;51.420;-0.040;2022-09-24T05:47:57;11.50;99.90
45837;DHT22;31548;51.420;-0.040;2022-09-24T05:50:27;11.50;99.90
45837;DHT22;31548;51.420;-0.040;2022-09-24T05:52:55;11.50;99.90
45837;DHT22;31548;51.420;-0.040;2022-09-24T05:55:22;11.50;99.90
45837;DHT22;31548;51.420;-0.040;2022-09-24T05:57:49;11.50;99.90
45837;DHT22;31548;51.420;-0.040;2022-09-24T06:00:16;11.50;99.90
45837;DHT22;31548;51.420;-0.040;2022-09-24T06:02:44;11.50;99.90
45837;DHT22;31548;51.420;-0.040;2022-09-24T06:05:12;11.50;99.90
45837;DHT22;31548;51.420;-0.040;2022-09-24T06:07:39;11.50;99.90
45837;DHT22;31548;51.420;-0.040;2022-09-24T06:10:06;11.40;99.90
45837;DHT22;31548;51.420;-0.040;2022-09-24T06:12:34;11.50;99.90
45837;DHT22;31548;51.420;-0.040;2022-09-24T06:15:02;11.40;99.90
45837;DHT22;31548;51.420;-0.040;2022-09-24T06:18:25;11.40;99.90
45837;DHT22;31548;51.420;-0.040;2022-09-24T06:20:52;11.50;99.90
45837;DHT22;31548;51.420;-0.040;2022-09-24T06:23:20;11.40;99.90
45837;DHT22;31548;51.420;-0.040;2022-09-24T06:25:50;11.40;99.90
45837;DHT22;31548;51.420;-0.040;2022-09-24T06:28:18;11.50;99.90
45837;DHT22;31548;51.420;-0.040;2022-09-24T06:30:45;11.50;99.90
45837;DHT22;31548;51.420;-0.040;2022-09-24T06:33:13;11.40;99.90
45837;DHT22;31548;51.420;-0.040;2022-09-24T06:35:42;11.40;99.90
45837;DHT22;31548;51.420;-0.040;2022-09-24T06:38:14;11.40;99.90
45837;DHT22;31548;51.420;-0.040;2022-09-24T06:40:42;11.40;99.90
45837;DHT22;31548;51.420;-0.040;2022-09-24T06:43:12;11.40;99.90
45837;DHT22;31548;51.420;-0.040;2022-09-24T06:45:40;11.40;99.90
45837;DHT22;31548;51.420;-0.040;2022-09-24T06:48:13;11.50;99.90
45837;DHT22;31548;51.420;-0.040;2022-09-24T06:50:42;11.50;99.90
45837;DHT22;31548;51.420;-0.040;2022-09-24T06:53:10;11.50;99.90
45837;DHT22;31548;51.420;-0.040;2022-09-24T06:55:38;11.60;99.90
45837;DHT22;31548;51.420;-0.040;2022-09-24T06:58:11;11.60;99.90
45837;DHT22;31548;51.420;-0.040;2022-09-24T07:00:39;11.60;99.90
45837;DHT22;31548;51.420;-0.040;2022-09-24T07:03:12;11.60;99.90
45837;DHT22;31548;51.420;-0.040;2022-09-24T07:05:41;11.70;99.90
45837;DHT22;31548;51.420;-0.040;2022-09-24T07:08:10;11.70;99.90
45837;DHT22;31548;51.420;-0.040;2022-09-24T07:10:41;11.70;99.90
45837;DHT22;31548;51.420;-0.040;2022-09-24T07:13:08;11.70;99.90
45837;DHT22;31548;51.420;-0.040;2022-09-24T07:15:35;11.80;99.90
45837;DHT22;31548;51.420;-0.040;2022-09-24T07:18:03;11.80;99.90
45837;DHT22;31548;51.420;-0.040;2022-09-24T07:20:30;11.90;99.90
45837;DHT22;31548;51.420;-0.040;2022-09-24T07:22:59;11.80;99.90
45837;DHT22;31548;51.420;-0.040;2022-09-24T07:25:26;11.90;99.90
45837;DHT22;31548;51.420;-0.040;2022-09-24T07:27:54;12.00;99.90
45837;DHT22;31548;51.420;-0.040;2022-09-24T07:30:21;12.00;99.90
45837;DHT22;31548;51.420;-0.040;2022-09-24T07:32:53;12.00;99.90
45837;DHT22;31548;51.420;-0.040;2022-09-24T07:35:21;12.00;99.90
45837;DHT22;31548;51.420;-0.040;2022-09-24T07:37:55;12.00;99.90
45837;DHT22;31548;51.420;-0.040;2022-09-24T07:40:23;12.10;99.90
45837;DHT22;31548;51.420;-0.040;2022-09-24T07:42:50;12.10;99.90
45837;DHT22;31548;51.420;-0.040;2022-09-24T07:45:18;12.10;99.90
45837;DHT22;31548;51.420;-0.040;2022-09-24T07:47:45;12.20;99.90
45837;DHT22;31548;51.420;-0.040;2022-09-24T07:50:12;12.20;99.90
45837;DHT22;31548;51.420;-0.040;2022-09-24T07:52:40;12.30;99.90
45837;DHT22;31548;51.420;-0.040;2022-09-24T07:55:07;12.30;99.90
45837;DHT22;31548;51.420;-0.040;2022-09-24T07:57:35;12.30;99.90
45837;DHT22;31548;51.420;-0.040;2022-09-24T08:00:03;12.40;99.90
45837;DHT22;31548;51.420;-0.040;2022-09-24T08:02:37;12.50;99.90
45837;DHT22;31548;51.420;-0.040;2022-09-24T08:05:05;12.40;99.90
45837;DHT22;31548;51.420;-0.040;2022-09-24T08:07:32;12.50;99.90
45837;DHT22;31548;51.420;-0.040;2022-09-24T08:10:00;12.60;99.90
45837;DHT22;31548;51.420;-0.040;2022-09-24T08:12:27;12.50;99.90
45837;DHT22;31548;51.420;-0.040;2022-09-24T08:14:54;12.60;99.90
45837;DHT22;31548;51.420;-0.040;2022-09-24T08:17:22;12.70;99.90
45837;DHT22;31548;51.420;-0.040;2022-09-24T08:19:49;12.80;99.90
45837;DHT22;31548;51.420;-0.040;2022-09-24T08:22:18;12.90;99.90
45837;DHT22;31548;51.420;-0.040;2022-09-24T08:24:45;13.00;99.90
45837;DHT22;31548;51.420;-0.040;2022-09-24T08:27:12;13.00;99.90
45837;DHT22;31548;51.420;-0.040;2022-09-24T08:29:43;13.00;99.90
45837;DHT22;31548;51.420;-0.040;2022-09-24T08:32:11;13.00;99.90
45837;DHT22;31548;51.420;-0.040;2022-09-24T08:34:39;12.90;99.90
45837;DHT22;31548;51.420;-0.040;2022-09-24T08:37:07;12.90;99.90
45837;DHT22;31548;51.420;-0.040;2022-09-24T08:39:34;12.90;99.90
45837;DHT22;31548;51.420;-0.040;2022-09-24T08:42:06;13.00;99.90
45837;DHT22;31548;51.420;-0.040;2022-09-24T08:47:33;13.10;99.90
45837;DHT22;31548;51.420;-0.040;2022-09-24T08:50:26;13.10;99.90
45837;DHT22;31548;51.420;-0.040;2022-09-24T08:55:40;13.20;99.90
45837;DHT22;31548;51.420;-0.040;2022-09-24T09:01:00;13.30;99.90
45837;DHT22;31548;51.420;-0.040;2022-09-24T09:03:35;13.30;99.90
45837;DHT22;31548;51.420;-0.040;2022-09-24T09:09:01;13.30;99.90
45837;DHT22;31548;51.420;-0.040;2022-09-24T09:11:36;13.40;99.90
45837;DHT22;31548;51.420;-0.040;2022-09-24T09:16:58;13.50;99.90
45837;DHT22;31548;51.420;-0.040;2022-09-24T09:19:31;13.50;99.90
45837;DHT22;31548;51.420;-0.040;2022-09-24T09:22:13;13.60;99.90
45837;DHT22;31548;51.420;-0.040;2022-09-24T09:24:49;13.60;99.90
45837;DHT22;31548;51.420;-0.040;2022-09-24T09:27:18;13.70;99.90
45837;DHT22;31548;51.420;-0.040;2022-09-24T09:29:53;13.80;99.90
45837;DHT22;31548;51.420;-0.040;2022-09-24T09:32:26;13.80;99.90
45837;DHT22;31548;51.420;-0.040;2022-09-24T09:43:11;14.20;99.90
45837;DHT22;31548;51.420;-0.040;2022-09-24T09:45:55;14.20;99.90
45837;DHT22;31548;51.420;-0.040;2022-09-24T09:48:30;14.20;99.90
45837;DHT22;31548;51.420;-0.040;2022-09-24T09:51:05;14.30;99.90
45837;DHT22;31548;51.420;-0.040;2022-09-24T09:53:32;14.40;99.90
45837;DHT22;31548;51.420;-0.040;2022-09-24T09:56:05;14.50;99.90
45837;DHT22;31548;51.420;-0.040;2022-09-24T09:58:35;14.40;99.90
45837;DHT22;31548;51.420;-0.040;2022-09-24T10:01:12;14.60;99.90
45837;DHT22;31548;51.420;-0.040;2022-09-24T10:06:29;14.60;99.90
45837;DHT22;31548;51.420;-0.040;2022-09-24T10:09:18;14.70;99.90
45837;DHT22;31548;51.420;-0.040;2022-09-24T10:11:48;15.00;99.90
45837;DHT22;31548;51.420;-0.040;2022-09-24T10:14:16;15.10;99.90
45837;DHT22;31548;51.420;-0.040;2022-09-24T10:16:52;15.30;99.90
45837;DHT22;31548;51.420;-0.040;2022-09-24T10:19:25;15.40;99.90
45837;DHT22;31548;51.420;-0.040;2022-09-24T10:21:55;15.50;99.90
45837;DHT22;31548;51.420;-0.040;2022-09-24T10:24:25;15.60;99.90
45837;DHT22;31548;51.420;-0.040;2022-09-24T10:26:53;15.70;99.90
45837;DHT22;31548;51.420;-0.040;2022-09-24T10:29:23;15.70;99.90
45837;DHT22;31548;51.420;-0.040;2022-09-24T10:32:21;15.70;99.90
45837;DHT22;31548;51.420;-0.040;2022-09-24T10:34:56;15.80;99.90
45837;DHT22;31548;51.420;-0.040;2022-09-24T10:37:24;15.80;99.90
45837;DHT22;31548;51.420;-0.040;2022-09-24T10:40:20;15.90;99.90
45837;DHT22;31548;51.420;-0.040;2022-09-24T10:42:57;16.00;99.90
45837;DHT22;31548;51.420;-0.040;2022-09-24T10:45:48;16.20;99.90
45837;DHT22;31548;51.420;-0.040;2022-09-24T10:48:31;16.10;99.90
45837;DHT22;31548;51.420;-0.040;2022-09-24T10:56:36;16.60;99.90
45837;DHT22;31548;51.420;-0.040;2022-09-24T11:04:57;16.50;99.90
45837;DHT22;31548;51.420;-0.040;2022-09-24T11:10:19;16.50;99.90
45837;DHT22;31548;51.420;-0.040;2022-09-24T11:12:59;16.40;99.90
45837;DHT22;31548;51.420;-0.040;2022-09-24T11:15:47;16.40;99.90
45837;DHT22;31548;51.420;-0.040;2022-09-24T11:21:32;16.60;99.90
45837;DHT22;31548;51.420;-0.040;2022-09-24T11:24:14;16.70;99.90
45837;DHT22;31548;51.420;-0.040;2022-09-24T11:30:09;16.70;99.90
45837;DHT22;31548;51.420;-0.040;2022-09-24T11:38:19;17.00;99.90
45837;DHT22;31548;51.420;-0.040;2022-09-24T11:41:05;17.00;99.90
45837;DHT22;31548;51.420;-0.040;2022-09-24T11:43:52;17.10;99.90
45837;DHT22;31548;51.420;-0.040;2022-09-24T11:46:43;17.20;99.90
45837;DHT22;31548;51.420;-0.040;2022-09-24T11:52:25;17.00;99.90
45837;DHT22;31548;51.420;-0.040;2022-09-24T11:55:17;17.20;99.90
45837;DHT22;31548;51.420;-0.040;2022-09-24T11:57:50;17.40;99.90
45837;DHT22;31548;51.420;-0.040;2022-09-24T12:00:19;17.40;99.90
45837;DHT22;31548;51.420;-0.040;2022-09-24T12:02:49;17.50;99.90
45837;DHT22;31548;51.420;-0.040;2022-09-24T12:05:29;17.60;99.90
45837;DHT22;31548;51.420;-0.040;2022-09-24T12:08:09;17.60;99.90
45837;DHT22;31548;51.420;-0.040;2022-09-24T12:10:48;17.50;99.90
45837;DHT22;31548;51.420;-0.040;2022-09-24T12:16:26;17.40;99.90
45837;DHT22;31548;51.420;-0.040;2022-09-24T12:21:29;17.40;99.90
45837;DHT22;31548;51.420;-0.040;2022-09-24T12:24:05;17.50;99.90
45837;DHT22;31548;51.420;-0.040;2022-09-24T12:26:37;17.40;99.90
45837;DHT22;31548;51.420;-0.040;2022-09-24T12:37:49;17.70;99.90
45837;DHT22;31548;51.420;-0.040;2022-09-24T12:40:49;17.70;99.90
45837;DHT22;31548;51.420;-0.040;2022-09-24T12:43:29;17.60;99.90
45837;DHT22;31548;51.420;-0.040;2022-09-24T12:46:00;17.60;99.90
45837;DHT22;31548;51.420;-0.040;2022-09-24T12:48:31;17.70;99.90
45837;DHT22;31548;51.420;-0.040;2022-09-24T12:51:03;18.00;99.90
45837;DHT22;31548;51.420;-0.040;2022-09-24T12:53:37;18.20;99.90
45837;DHT22;31548;51.420;-0.040;2022-09-24T12:56:05;18.30;99.90
45837;DHT22;31548;51.420;-0.040;2022-09-24T12:58:43;18.40;99.90
45837;DHT22;31548;51.420;-0.040;2022-09-24T13:01:27;18.50;99.80
45837;DHT22;31548;51.420;-0.040;2022-09-24T13:04:25;18.70;99.90
45837;DHT22;31548;51.420;-0.040;2022-09-24T13:06:52;18.90;99.80
45837;DHT22;31548;51.420;-0.040;2022-09-24T13:09:39;18.70;99.60
45837;DHT22;31548;51.420;-0.040;2022-09-24T13:14:54;19.00;99.90
45837;DHT22;31548;51.420;-0.040;2022-09-24T13:17:24;19.10;99.90
45837;DHT22;31548;51.420;-0.040;2022-09-24T13:19:57;19.30;99.90
45837;DHT22;31548;51.420;-0.040;2022-09-24T13:22:30;19.30;98.20
45837;DHT22;31548;51.420;-0.040;2022-09-24T13:25:25;19.40;99.20
45837;DHT22;31548;51.420;-0.040;2022-09-24T13:28:01;19.70;98.70
45837;DHT22;31548;51.420;-0.040;2022-09-24T13:35:53;19.60;99.70
45837;DHT22;31548;51.420;-0.040;2022-09-24T13:38:31;19.80;98.70
45837;DHT22;31548;51.420;-0.040;2022-09-24T13:41:05;19.40;98.20
45837;DHT22;31548;51.420;-0.040;2022-09-24T13:44:02;19.10;97.20
45837;DHT22;31548;51.420;-0.040;2022-09-24T13:46:31;18.90;97.80
45837;DHT22;31548;51.420;-0.040;2022-09-24T13:49:04;18.80;97.50
45837;DHT22;31548;51.420;-0.040;2022-09-24T13:51:36;19.20;98.60
45837;DHT22;31548;51.420;-0.040;2022-09-24T13:54:20;19.50;98.70
45837;DHT22;31548;51.420;-0.040;2022-09-24T13:57:12;19.50;98.60
45837;DHT22;31548;51.420;-0.040;2022-09-24T13:59:40;19.30;97.80
45837;DHT22;31548;51.420;-0.040;2022-09-24T14:02:27;19.20;97.10
45837;DHT22;31548;51.420;-0.040;2022-09-24T14:04:59;19.30;98.40
45837;DHT22;31548;51.420;-0.040;2022-09-24T14:07:27;19.60;97.30
45837;DHT22;31548;51.420;-0.040;2022-09-24T14:10:04;19.70;97.50
45837;DHT22;31548;51.420;-0.040;2022-09-24T14:12:32;19.60;97.00
45837;DHT22;31548;51.420;-0.040;2022-09-24T14:14:59;19.60;97.90
45837;DHT22;31548;51.420;-0.040;2022-09-24T14:17:30;19.30;98.00
45837;DHT22;31548;51.420;-0.040;2022-09-24T14:19:57;19.20;98.00
45837;DHT22;31548;51.420;-0.040;2022-09-24T14:22:44;19.20;99.10
45837;DHT22;31548;51.420;-0.040;2022-09-24T14:25:19;19.00;99.10
45837;DHT22;31548;51.420;-0.040;2022-09-24T14:27:49;18.80;99.80
45837;DHT22;31548;51.420;-0.040;2022-09-24T14:30:23;18.60;99.90
45837;DHT22;31548;51.420;-0.040;2022-09-24T14:33:00;18.50;99.90
45837;DHT22;31548;51.420;-0.040;2022-09-24T14:35:30;18.40;99.90
45837;DHT22;31548;51.420;-0.040;2022-09-24T14:40:28;18.10;99.90
45837;DHT22;31548;51.420;-0.040;2022-09-24T14:42:57;18.20;99.90
45837;DHT22;31548;51.420;-0.040;2022-09-24T14:45:28;18.10;99.90
45837;DHT22;31548;51.420;-0.040;2022-09-24T14:48:05;18.10;99.90
45837;DHT22;31548;51.420;-0.040;2022-09-24T14:50:43;18.00;99.90
45837;DHT22;31548;51.420;-0.040;2022-09-24T14:53:25;18.10;99.90
45837;DHT22;31548;51.420;-0.040;2022-09-24T14:55:53;18.00;99.90
45837;DHT22;31548;51.420;-0.040;2022-09-24T15:01:05;18.30;99.90
45837;DHT22;31548;51.420;-0.040;2022-09-24T15:03:48;18.30;99.90
45837;DHT22;31548;51.420;-0.040;2022-09-24T15:08:51;18.30;99.90
45837;DHT22;31548;51.420;-0.040;2022-09-24T15:11:19;18.30;99.90
45837;DHT22;31548;51.420;-0.040;2022-09-24T15:13:57;18.30;99.90
45837;DHT22;31548;51.420;-0.040;2022-09-24T15:16:33;18.20;99.90
45837;DHT22;31548;51.420;-0.040;2022-09-24T15:21:34;18.10;99.90
45837;DHT22;31548;51.420;-0.040;2022-09-24T15:24:01;18.00;99.90
45837;DHT22;31548;51.420;-0.040;2022-09-24T15:26:30;17.90;99.90
45837;DHT22;31548;51.420;-0.040;2022-09-24T15:29:00;17.90;99.90
45837;DHT22;31548;51.420;-0.040;2022-09-24T15:31:28;17.90;99.90
45837;DHT22;31548;51.420;-0.040;2022-09-24T15:33:55;17.70;99.90
45837;DHT22;31548;51.420;-0.040;2022-09-24T15:36:23;17.60;99.90
45837;DHT22;31548;51.420;-0.040;2022-09-24T15:38:51;17.60;99.90
45837;DHT22;31548;51.420;-0.040;2022-09-24T15:41:20;17.50;99.90
45837;DHT22;31548;51.420;-0.040;2022-09-24T15:43:47;17.50;99.90
45837;DHT22;31548;51.420;-0.040;2022-09-24T15:46:14;17.80;99.90
45837;DHT22;31548;51.420;-0.040;2022-09-24T15:48:43;18.20;99.90
45837;DHT22;31548;51.420;-0.040;2022-09-24T15:51:10;18.90;99.90
45837;DHT22;31548;51.420;-0.040;2022-09-24T15:53:41;19.50;99.90
45837;DHT22;31548;51.420;-0.040;2022-09-24T15:56:09;19.90;99.10
45837;DHT22;31548;51.420;-0.040;2022-09-24T15:58:37;20.50;98.10
45837;DHT22;31548;51.420;-0.040;2022-09-24T16:01:04;20.30;97.20
45837;DHT22;31548;51.420;-0.040;2022-09-24T16:03:32;19.90;99.00
45837;DHT22;31548;51.420;-0.040;2022-09-24T16:05:59;19.90;98.90
45837;DHT22;31548;51.420;-0.040;2022-09-24T16:08:26;19.70;97.40
45837;DHT22;31548;51.420;-0.040;2022-09-24T16:10:54;19.40;99.20
45837;DHT22;31548;51.420;-0.040;2022-09-24T16:13:22;19.00;97.60
45837;DHT22;31548;51.420;-0.040;2022-09-24T16:15:50;18.70;99.20
45837;DHT22;31548;51.420;-0.040;2022-09-24T16:18:17;18.60;98.80
45837;DHT22;31548;51.420;-0.040;2022-09-24T16:20:44;18.50;98.30
45837;DHT22;31548;51.420;-0.040;2022-09-24T16:23:16;18.30;98.50
45837;DHT22;31548;51.420;-0.040;2022-09-24T16:25:55;18.20;98.50
45837;DHT22;31548;51.420;-0.040;2022-09-24T16:28:23;18.10;99.70
45837;DHT22;31548;51.420;-0.040;2022-09-24T16:30:51;17.90;98.90
45837;DHT22;31548;51.420;-0.040;2022-09-24T16:33:19;17.90;98.20
45837;DHT22;31548;51.420;-0.040;2022-09-24T16:35:46;17.60;98.70
45837;DHT22;31548;51.420;-0.040;2022-09-24T16:38:14;17.70;98.60
45837;DHT22;31548;51.420;-0.040;2022-09-24T16:40:48;17.60;98.70
45837;DHT22;31548;51.420;-0.040;2022-09-24T16:43:18;17.50;98.80
45837;DHT22;31548;51.420;-0.040;2022-09-24T16:45:45;17.40;98.90
45837;DHT22;31548;51.420;-0.040;2022-09-24T16:48:12;17.30;99.60
45837;DHT22;31548;51.420;-0.040;2022-09-24T16:50:39;17.20;99.90
45837;DHT22;31548;51.420;-0.040;2022-09-24T16:53:07;17.10;99.90
45837;DHT22;31548;51.420;-0.040;2022-09-24T16:55:34;17.10;99.90
45837;DHT22;31548;51.420;-0.040;2022-09-24T16:58:01;17.10;99.90
45837;DHT22;31548;51.420;-0.040;2022-09-24T17:00:29;17.00;99.90
45837;DHT22;31548;51.420;-0.040;2022-09-24T17:02:56;16.90;99.90
45837;DHT22;31548;51.420;-0.040;2022-09-24T17:05:25;16.80;99.90
45837;DHT22;31548;51.420;-0.040;2022-09-24T17:07:52;16.80;99.90
45837;DHT22;31548;51.420;-0.040;2022-09-24T17:10:19;16.70;99.90
45837;DHT22;31548;51.420;-0.040;2022-09-24T17:12:50;16.50;99.90
45837;DHT22;31548;51.420;-0.040;2022-09-24T17:15:18;16.50;99.90
45837;DHT22;31548;51.420;-0.040;2022-09-24T17:17:47;16.40;99.90
45837;DHT22;31548;51.420;-0.040;2022-09-24T17:20:17;16.40;99.90
45837;DHT22;31548;51.420;-0.040;2022-09-24T17:22:45;16.50;99.90
45837;DHT22;31548;51.420;-0.040;2022-09-24T17:25:14;16.40;99.90
45837;DHT22;31548;51.420;-0.040;2022-09-24T17:27:42;16.40;99.90
45837;DHT22;31548;51.420;-0.040;2022-09-24T17:30:11;16.40;99.90
45837;DHT22;31548;51.420;-0.040;2022-09-24T17:32:38;16.30;99.90